Terminal Aerodrome Forecast
Issued by NWS

Current Version | Previous Version | Text Only | Print | Product List | Glossary On
Versions: 1 2 3 4 5 6 7 8 9 10 11 12 13 14 15 16 17 18 19 20 21 22 23 24 25 26 27 28 29 30 31 32
000
FTUS43 KDTX 042320
TAFYIP
TAF
KYIP 042320Z 0500/0524 24010KT P6SM BKN060 BKN120
      TEMPO 0500/0503 5SM SHRA OVC050
     FM050300 04008KT P6SM BKN080 BKN250
     FM051200 08007KT P6SM BKN050 OVC100
     FM051700 10010KT 5SM SHRA OVC045
     FM052100 12005KT P6SM BKN050 OVC100=

USA.gov is the U.S. government's official web portal to all federal, state and local government web resources and services.